Manitou, Minnesota
Current Conditions -  °F | °C
As of 7:53 AM on Friday 31 Oct 2014 (Local Time) from KBDE Reporting Station
Clear Clear  
Wind Chill: 21°   Ceiling: Unl
Heat Index: 21°   Visibility: 10mi
Dew Point: 18°   Wind: 0mph
Humidity: 88%   Direction: NA
Pressure: 30.57"   Gusts: NA
Location:  48.6069°N, 94.172°W
Report Text: KBDE 311253Z AUTO 00000KT 10SM CLR M06/M08 A3057 RMK AO2 SLP371 I1001 T10611078 TSNO
Loading
Personal Weather Stations






























Interactive Weather Map
Tropical Storm Tracking
New forecast layout! Learn more

10-Day Weather Forecast

Advertisements
Track Severe Weather on mobile